Time,TemperatureF,DewpointF,PressureIn,WindDirection,WindDirectionDegrees,WindSpeedMPH,WindSpeedGustMPH,Humidity,HourlyPrecipIn,Conditions,Clouds,dailyrainin,SoftwareType,DateUTC
2013-04-15 00:09:00,45.7,38.0,29.84,ESE,112,3.0,8.0,74,0.00,,,0.00,weatherlink.com 1.10,2013-04-15 04:09:00,
2013-04-15 00:24:00,45.7,38.0,29.83,SE,128,0.0,6.0,74,0.00,,,0.00,weatherlink.com 1.10,2013-04-15 04:24:00,
2013-04-15 00:39:00,45.6,38.0,29.83,East,94,3.0,7.0,75,0.00,,,0.00,weatherlink.com 1.10,2013-04-15 04:39:00,
2013-04-15 00:54:00,45.8,38.0,29.82,East,87,6.0,9.0,75,0.00,,,0.00,weatherlink.com 1.10,2013-04-15 04:54:00,
2013-04-15 01:09:00,45.7,38.0,29.82,East,91,3.0,5.0,75,0.00,,,0.00,weatherlink.com 1.10,2013-04-15 05:09:00,
2013-04-15 01:24:00,45.9,38.0,29.82,East,84,2.0,7.0,75,0.00,,,0.00,weatherlink.com 1.10,2013-04-15 05:24:00,
2013-04-15 01:39:00,45.8,38.0,29.82,ESE,103,0.0,3.0,75,0.00,,,0.00,weatherlink.com 1.10,2013-04-15 05:39:00,
2013-04-15 01:54:00,45.7,39.0,29.82,ENE,77,2.0,3.0,76,0.00,,,0.00,weatherlink.com 1.10,2013-04-15 05:54:00,
2013-04-15 02:09:00,45.9,39.0,29.82,East,84,0.0,5.0,76,0.00,,,0.00,weatherlink.com 1.10,2013-04-15 06:09:00,
2013-04-15 02:24:00,46.2,39.0,29.81,East,89,0.0,6.0,76,0.00,,,0.00,weatherlink.com 1.10,2013-04-15 06:24:00,
2013-04-15 02:39:00,46.1,39.0,29.81,SE,132,0.0,0.0,76,0.00,,,0.00,weatherlink.com 1.10,2013-04-15 06:39:00,
2013-04-15 02:54:00,45.9,39.0,29.82,ESE,108,0.0,3.0,76,0.00,,,0.00,weatherlink.com 1.10,2013-04-15 06:54:00,
2013-04-15 03:54:00,44.9,39.0,29.85,ESE,105,0.0,0.0,79,0.00,,,0.00,weatherlink.com 1.10,2013-04-15 07:54:00,
2013-04-15 04:09:00,45.8,40.0,29.85,ESE,121,0.0,2.0,80,0.00,,,0.00,weatherlink.com 1.10,2013-04-15 08:09:00,
2013-04-15 04:24:00,48.7,42.0,29.85,South,176,0.0,5.0,77,0.00,,,0.00,weatherlink.com 1.10,2013-04-15 08:24:00,
2013-04-15 04:40:00,49.8,42.0,29.84,ENE,64,2.0,5.0,75,0.00,,,0.00,weatherlink.com 1.10,2013-04-15 08:40:00,
2013-04-15 04:55:00,49.8,42.0,29.84,East,97,0.0,0.0,75,0.00,,,0.00,weatherlink.com 1.10,2013-04-15 08:55:00,
2013-04-15 05:10:00,50.3,43.0,29.84,SE,129,4.0,8.0,76,0.00,,,0.00,weatherlink.com 1.10,2013-04-15 09:10:00,
2013-04-15 05:25:00,51.0,43.0,29.84,SSE,154,0.0,6.0,75,0.00,,,0.00,weatherlink.com 1.10,2013-04-15 09:25:00,
2013-04-15 05:40:00,51.4,44.0,29.82,SSE,158,4.0,10.0,75,0.00,,,0.00,weatherlink.com 1.10,2013-04-15 09:40:00,
2013-04-15 05:55:00,51.3,44.0,29.82,SSW,194,0.0,8.0,75,0.00,,,0.00,weatherlink.com 1.10,2013-04-15 09:55:00,
2013-04-15 06:10:00,51.3,44.0,29.80,ENE,72,0.0,7.0,76,0.00,,,0.00,weatherlink.com 1.10,2013-04-15 10:10:00,
2013-04-15 06:25:00,51.6,44.0,29.80,ESE,106,2.0,8.0,76,0.00,,,0.00,weatherlink.com 1.10,2013-04-15 10:25:00,
2013-04-15 06:40:00,52.0,45.0,29.80,SSE,159,6.0,10.0,76,0.00,,,0.00,weatherlink.com 1.10,2013-04-15 10:40:00,
2013-04-15 06:55:00,52.6,45.0,29.82,SW,232,2.0,-999.0,76,-99.99,,,0.00,weatherlink.com 1.10,2013-04-15 10:55:00,
2013-04-15 07:10:00,53.0,46.0,29.82,South,179,2.0,6.0,76,0.00,,,0.00,weatherlink.com 1.10,2013-04-15 11:10:00,
2013-04-15 07:25:00,53.1,46.0,29.83,South,188,0.0,6.0,76,0.00,,,0.00,weatherlink.com 1.10,2013-04-15 11:25:00,
2013-04-15 07:55:00,53.2,46.0,29.83,SSW,201,2.0,7.0,77,0.00,,,0.00,weatherlink.com 1.10,2013-04-15 11:55:00,
2013-04-15 08:10:00,53.5,46.0,29.84,South,186,0.0,5.0,77,0.00,,,0.00,weatherlink.com 1.10,2013-04-15 12:10:00,
2013-04-15 08:25:00,54.4,47.0,29.84,South,179,4.0,10.0,77,0.00,,,0.00,weatherlink.com 1.10,2013-04-15 12:25:00,
2013-04-15 08:40:00,54.7,48.0,29.83,South,190,5.0,10.0,77,0.00,,,0.00,weatherlink.com 1.10,2013-04-15 12:40:00,
2013-04-15 08:55:00,56.0,49.0,29.83,SSW,195,4.0,11.0,76,0.00,,,0.00,weatherlink.com 1.10,2013-04-15 12:55:00,
2013-04-15 09:10:00,57.6,49.0,29.84,SSW,193,6.0,12.0,73,0.00,,,0.00,weatherlink.com 1.10,2013-04-15 13:10:00,
2013-04-15 09:25:00,58.0,49.0,29.83,SSE,160,3.0,13.0,73,0.00,,,0.00,weatherlink.com 1.10,2013-04-15 13:25:00,
2013-04-15 09:40:00,58.7,50.0,29.83,SE,125,8.0,12.0,72,0.00,,,0.00,weatherlink.com 1.10,2013-04-15 13:40:00,
2013-04-15 09:55:00,58.6,50.0,29.83,SE,136,4.0,13.0,72,0.00,,,0.00,weatherlink.com 1.10,2013-04-15 13:55:00,
2013-04-15 10:10:00,58.6,50.0,29.83,SSE,162,3.0,15.0,73,0.00,,,0.00,weatherlink.com 1.10,2013-04-15 14:10:00,
2013-04-15 10:25:00,59.1,50.0,29.83,SSW,200,6.0,13.0,73,0.00,,,0.00,weatherlink.com 1.10,2013-04-15 14:25:00,
2013-04-15 10:40:00,59.8,51.0,29.84,West,280,1.0,17.0,72,0.00,,,0.00,weatherlink.com 1.10,2013-04-15 14:40:00,
2013-04-15 10:56:00,60.3,51.0,29.83,South,186,5.0,11.0,72,0.00,,,0.00,weatherlink.com 1.10,2013-04-15 14:56:00,
2013-04-15 11:11:00,60.8,51.0,29.80,SSE,152,6.0,14.0,71,0.00,,,0.00,weatherlink.com 1.10,2013-04-15 15:11:00,
2013-04-15 11:26:00,62.0,52.0,29.82,SSE,166,9.0,15.0,71,0.00,,,0.00,weatherlink.com 1.10,2013-04-15 15:26:00,
2013-04-15 11:56:00,63.0,53.0,29.84,SE,141,4.0,9.0,69,0.00,,,0.00,weatherlink.com 1.10,2013-04-15 15:56:00,
2013-04-15 12:11:00,62.7,53.0,29.85,SSE,163,2.0,15.0,70,0.00,,,0.00,weatherlink.com 1.10,2013-04-15 16:11:00,
2013-04-15 12:26:00,63.0,53.0,29.84,SSE,163,3.0,11.0,70,0.00,,,0.00,weatherlink.com 1.10,2013-04-15 16:26:00,
2013-04-15 13:41:00,64.1,54.0,29.83,SSE,168,3.0,13.0,69,0.00,,,0.00,weatherlink.com 1.10,2013-04-15 17:41:00,
2013-04-15 14:11:00,65.2,55.0,29.82,East,82,3.0,13.0,69,0.00,,,0.00,weatherlink.com 1.10,2013-04-15 18:11:00,
2013-04-15 14:26:00,65.0,55.0,29.83,South,169,5.0,13.0,70,0.00,,,0.00,weatherlink.com 1.10,2013-04-15 18:26:00,
2013-04-15 14:41:00,64.5,55.0,29.84,WSW,239,3.0,11.0,70,0.00,,,0.00,weatherlink.com 1.10,2013-04-15 18:41:00,
2013-04-15 14:56:00,64.0,54.0,29.83,WSW,258,4.0,10.0,71,0.00,,,0.00,weatherlink.com 1.10,2013-04-15 18:56:00,
2013-04-15 15:11:00,63.7,55.0,29.83,ESE,121,6.0,13.0,72,0.00,,,0.00,weatherlink.com 1.10,2013-04-15 19:11:00,
2013-04-15 15:26:00,64.0,55.0,29.83,SSW,193,2.0,11.0,72,0.00,,,0.00,weatherlink.com 1.10,2013-04-15 19:26:00,
2013-04-15 15:41:00,63.7,55.0,29.83,WSW,243,0.0,11.0,73,0.00,,,0.00,weatherlink.com 1.10,2013-04-15 19:41:00,
2013-04-15 15:56:00,63.7,55.0,29.82,South,173,5.0,13.0,73,0.00,,,0.00,weatherlink.com 1.10,2013-04-15 19:56:00,
2013-04-15 16:10:00,64.1,55.0,29.81,SSE,160,5.0,10.0,73,0.00,,,0.00,weatherlink.com 1.10,2013-04-15 20:10:00,
2013-04-15 16:25:00,64.1,55.0,29.82,SSE,158,4.0,10.0,73,0.00,,,0.00,weatherlink.com 1.10,2013-04-15 20:25:00,
2013-04-15 16:40:00,64.2,55.0,29.82,West,262,7.0,7.0,73,0.00,,,0.00,weatherlink.com 1.10,2013-04-15 20:40:00,
2013-04-15 16:55:00,64.1,56.0,29.82,West,260,3.0,7.0,74,0.00,,,0.00,weatherlink.com 1.10,2013-04-15 20:55:00,
2013-04-15 17:10:00,63.7,55.0,29.83,WSW,256,4.0,7.0,74,0.00,,,0.00,weatherlink.com 1.10,2013-04-15 21:10:00,
2013-04-15 17:25:00,62.6,55.0,29.84,West,264,7.0,11.0,77,0.00,,,0.00,weatherlink.com 1.10,2013-04-15 21:25:00,
2013-04-15 17:40:00,59.3,52.0,29.85,WNW,293,3.0,14.0,78,0.01,,,0.01,weatherlink.com 1.10,2013-04-15 21:40:00,
2013-04-15 17:55:00,58.0,50.0,29.85,WNW,293,2.0,11.0,75,0.02,,,0.02,weatherlink.com 1.10,2013-04-15 21:55:00,
2013-04-15 18:10:00,57.1,49.0,29.85,WNW,288,6.0,10.0,75,0.02,,,0.02,weatherlink.com 1.10,2013-04-15 22:10:00,
2013-04-15 18:26:00,56.6,48.0,29.86,WNW,302,3.0,7.0,74,0.03,,,0.03,weatherlink.com 1.10,2013-04-15 22:26:00,
2013-04-15 18:41:00,56.1,48.0,29.86,WNW,289,1.0,6.0,73,0.09,,,0.10,weatherlink.com 1.10,2013-04-15 22:41:00,
2013-04-15 18:56:00,55.9,47.0,29.86,WSW,253,1.0,5.0,73,0.10,,,0.12,weatherlink.com 1.10,2013-04-15 22:56:00,
2013-04-15 19:11:00,55.9,47.0,29.86,WSW,243,0.0,4.0,73,0.11,,,0.13,weatherlink.com 1.10,2013-04-15 23:11:00,
2013-04-15 19:26:00,56.0,47.0,29.87,West,275,0.0,2.0,73,0.11,,,0.14,weatherlink.com 1.10,2013-04-15 23:26:00,
2013-04-15 19:41:00,55.9,47.0,29.86,WNW,298,0.0,0.0,73,0.07,,,0.17,weatherlink.com 1.10,2013-04-15 23:41:00,
2013-04-15 19:56:00,55.9,47.0,29.87,West,276,0.0,0.0,73,0.06,,,0.18,weatherlink.com 1.10,2013-04-15 23:56:00,
2013-04-15 20:11:00,55.9,47.0,29.87,SSW,199,0.0,0.0,73,0.07,,,0.20,weatherlink.com 1.10,2013-04-16 00:11:00,
2013-04-15 20:26:00,55.6,47.0,29.89,West,280,3.0,13.0,74,0.10,,,0.24,weatherlink.com 1.10,2013-04-16 00:26:00,
2013-04-15 20:41:00,52.7,47.0,29.89,WNW,289,7.0,11.0,80,0.09,,,0.26,weatherlink.com 1.10,2013-04-16 00:41:00,
2013-04-15 20:56:00,51.4,45.0,29.90,WNW,295,4.0,9.0,79,0.10,,,0.28,weatherlink.com 1.10,2013-04-16 00:56:00,
2013-04-15 21:11:00,50.6,44.0,29.90,WNW,300,0.0,6.0,78,0.10,,,0.30,weatherlink.com 1.10,2013-04-16 01:11:00,
2013-04-15 21:26:00,49.6,44.0,29.89,NW,325,1.0,6.0,81,0.10,,,0.34,weatherlink.com 1.10,2013-04-16 01:26:00,
2013-04-15 21:41:00,49.3,43.0,29.90,West,280,0.0,0.0,79,0.08,,,0.34,weatherlink.com 1.10,2013-04-16 01:41:00,
2013-04-15 22:11:00,48.7,42.0,29.90,West,265,0.0,0.0,79,0.09,,,0.39,weatherlink.com 1.10,2013-04-16 02:11:00,
2013-04-15 22:26:00,48.4,42.0,29.91,WNW,290,0.0,0.0,77,0.08,,,0.42,weatherlink.com 1.10,2013-04-16 02:26:00,
2013-04-15 22:41:00,48.1,41.0,29.91,WNW,293,0.0,0.0,77,0.10,,,0.44,weatherlink.com 1.10,2013-04-16 02:41:00,
2013-04-15 22:56:00,47.9,41.0,29.92,West,270,0.0,0.0,76,0.15,,,0.50,weatherlink.com 1.10,2013-04-16 02:56:00,
2013-04-15 23:11:00,47.7,40.0,29.93,SW,221,0.0,2.0,76,0.13,,,0.52,weatherlink.com 1.10,2013-04-16 03:11:00,
2013-04-15 23:26:00,47.5,40.0,29.93,West,269,0.0,0.0,76,0.12,,,0.54,weatherlink.com 1.10,2013-04-16 03:26:00,
2013-04-15 23:41:00,47.3,40.0,29.93,West,278,0.0,4.0,76,0.14,,,0.58,weatherlink.com 1.10,2013-04-16 03:41:00,
2013-04-15 23:56:00,47.0,40.0,29.94,WNW,290,2.0,7.0,76,0.14,,,0.64,weatherlink.com 1.10,2013-04-16 03:56:00,